sensor_id;sensor_type;location;lat;lon;timestamp;temperature;humidity
20479;DHT22;10398;52.490;13.434;2023-08-30T00:00:51;17.00;99.90
20479;DHT22;10398;52.490;13.434;2023-08-30T00:03:18;17.00;99.90
20479;DHT22;10398;52.490;13.434;2023-08-30T00:05:44;17.10;99.90
20479;DHT22;10398;52.490;13.434;2023-08-30T00:08:09;17.00;99.90
20479;DHT22;10398;52.490;13.434;2023-08-30T00:10:35;17.00;99.90
20479;DHT22;10398;52.490;13.434;2023-08-30T00:13:01;17.00;99.90
20479;DHT22;10398;52.490;13.434;2023-08-30T00:15:27;16.90;99.90
20479;DHT22;10398;52.490;13.434;2023-08-30T00:17:53;16.90;99.90
20479;DHT22;10398;52.490;13.434;2023-08-30T00:20:19;16.90;99.90
20479;DHT22;10398;52.490;13.434;2023-08-30T00:22:45;16.90;99.90
20479;DHT22;10398;52.490;13.434;2023-08-30T00:25:10;16.90;99.90
20479;DHT22;10398;52.490;13.434;2023-08-30T00:27:36;17.00;99.90
20479;DHT22;10398;52.490;13.434;2023-08-30T00:30:02;17.00;99.90
20479;DHT22;10398;52.490;13.434;2023-08-30T00:32:28;17.00;99.90
20479;DHT22;10398;52.490;13.434;2023-08-30T00:34:53;17.00;99.90
20479;DHT22;10398;52.490;13.434;2023-08-30T00:37:19;17.00;99.90
20479;DHT22;10398;52.490;13.434;2023-08-30T00:39:44;17.00;99.90
20479;DHT22;10398;52.490;13.434;2023-08-30T00:42:10;16.90;99.90
20479;DHT22;10398;52.490;13.434;2023-08-30T00:44:36;17.00;99.90
20479;DHT22;10398;52.490;13.434;2023-08-30T00:47:02;16.90;99.90
20479;DHT22;10398;52.490;13.434;2023-08-30T00:49:31;16.80;99.90
20479;DHT22;10398;52.490;13.434;2023-08-30T00:52:00;16.70;99.90
20479;DHT22;10398;52.490;13.434;2023-08-30T00:54:26;16.70;99.90
20479;DHT22;10398;52.490;13.434;2023-08-30T00:56:53;16.80;99.90
20479;DHT22;10398;52.490;13.434;2023-08-30T00:59:19;16.80;99.90
20479;DHT22;10398;52.490;13.434;2023-08-30T01:01:45;16.70;99.90
20479;DHT22;10398;52.490;13.434;2023-08-30T01:04:11;16.70;99.90
20479;DHT22;10398;52.490;13.434;2023-08-30T01:06:37;16.70;99.90
20479;DHT22;10398;52.490;13.434;2023-08-30T01:09:03;16.70;99.90
20479;DHT22;10398;52.490;13.434;2023-08-30T01:11:40;16.70;99.90
20479;DHT22;10398;52.490;13.434;2023-08-30T01:14:14;16.70;99.90
20479;DHT22;10398;52.490;13.434;2023-08-30T01:16:41;16.70;99.90
20479;DHT22;10398;52.490;13.434;2023-08-30T01:22:10;16.70;99.90
20479;DHT22;10398;52.490;13.434;2023-08-30T01:24:44;16.70;99.90
20479;DHT22;10398;52.490;13.434;2023-08-30T01:27:12;16.60;99.90
20479;DHT22;10398;52.490;13.434;2023-08-30T01:29:40;16.70;99.90
20479;DHT22;10398;52.490;13.434;2023-08-30T01:32:09;16.60;99.90
20479;DHT22;10398;52.490;13.434;2023-08-30T01:34:37;16.60;99.90
20479;DHT22;10398;52.490;13.434;2023-08-30T01:37:06;16.70;99.90
20479;DHT22;10398;52.490;13.434;2023-08-30T01:39:35;16.60;99.90
20479;DHT22;10398;52.490;13.434;2023-08-30T01:42:02;16.60;99.90
20479;DHT22;10398;52.490;13.434;2023-08-30T01:44:28;16.60;99.90
20479;DHT22;10398;52.490;13.434;2023-08-30T01:46:56;16.70;99.90
20479;DHT22;10398;52.490;13.434;2023-08-30T01:49:24;16.70;99.90
20479;DHT22;10398;52.490;13.434;2023-08-30T01:51:51;16.70;99.90
20479;DHT22;10398;52.490;13.434;2023-08-30T01:54:17;16.70;99.90
20479;DHT22;10398;52.490;13.434;2023-08-30T01:56:44;16.70;99.90
20479;DHT22;10398;52.490;13.434;2023-08-30T01:59:10;16.70;99.90
20479;DHT22;10398;52.490;13.434;2023-08-30T02:01:36;16.80;99.90
20479;DHT22;10398;52.490;13.434;2023-08-30T02:04:02;16.80;99.90
20479;DHT22;10398;52.490;13.434;2023-08-30T02:06:36;16.80;99.90
20479;DHT22;10398;52.490;13.434;2023-08-30T02:09:09;16.70;99.90
20479;DHT22;10398;52.490;13.434;2023-08-30T02:11:39;16.70;99.90
20479;DHT22;10398;52.490;13.434;2023-08-30T02:14:10;16.70;99.90
20479;DHT22;10398;52.490;13.434;2023-08-30T02:16:38;16.70;99.90
20479;DHT22;10398;52.490;13.434;2023-08-30T02:19:04;16.70;99.90
20479;DHT22;10398;52.490;13.434;2023-08-30T02:21:30;16.60;99.90
20479;DHT22;10398;52.490;13.434;2023-08-30T02:23:56;16.50;99.90
20479;DHT22;10398;52.490;13.434;2023-08-30T02:26:22;16.50;99.90
20479;DHT22;10398;52.490;13.434;2023-08-30T02:28:48;16.50;99.90
20479;DHT22;10398;52.490;13.434;2023-08-30T02:31:13;16.50;99.90
20479;DHT22;10398;52.490;13.434;2023-08-30T02:33:39;16.50;99.90
20479;DHT22;10398;52.490;13.434;2023-08-30T02:36:05;16.50;99.90
20479;DHT22;10398;52.490;13.434;2023-08-30T02:38:30;16.60;99.90
20479;DHT22;10398;52.490;13.434;2023-08-30T02:40:56;16.60;99.90
20479;DHT22;10398;52.490;13.434;2023-08-30T02:43:22;16.60;99.90
20479;DHT22;10398;52.490;13.434;2023-08-30T02:45:47;16.50;99.90
20479;DHT22;10398;52.490;13.434;2023-08-30T02:48:14;16.50;99.90
20479;DHT22;10398;52.490;13.434;2023-08-30T02:50:40;16.50;99.90
20479;DHT22;10398;52.490;13.434;2023-08-30T02:53:05;16.60;99.90
20479;DHT22;10398;52.490;13.434;2023-08-30T02:55:34;16.50;99.90
20479;DHT22;10398;52.490;13.434;2023-08-30T02:58:00;16.50;99.90
20479;DHT22;10398;52.490;13.434;2023-08-30T03:00:25;16.50;99.90
20479;DHT22;10398;52.490;13.434;2023-08-30T03:02:51;16.50;99.90
20479;DHT22;10398;52.490;13.434;2023-08-30T03:05:18;16.50;99.90
20479;DHT22;10398;52.490;13.434;2023-08-30T03:07:43;16.40;99.90
20479;DHT22;10398;52.490;13.434;2023-08-30T03:10:09;16.50;99.90
20479;DHT22;10398;52.490;13.434;2023-08-30T03:12:35;16.50;99.90
20479;DHT22;10398;52.490;13.434;2023-08-30T03:15:01;16.40;99.90
20479;DHT22;10398;52.490;13.434;2023-08-30T03:17:26;16.40;99.90
20479;DHT22;10398;52.490;13.434;2023-08-30T03:19:52;16.30;99.90
20479;DHT22;10398;52.490;13.434;2023-08-30T03:22:18;16.30;99.90
20479;DHT22;10398;52.490;13.434;2023-08-30T03:24:44;16.40;99.90
20479;DHT22;10398;52.490;13.434;2023-08-30T03:27:10;16.30;99.90
20479;DHT22;10398;52.490;13.434;2023-08-30T03:29:36;16.40;99.90
20479;DHT22;10398;52.490;13.434;2023-08-30T03:32:01;16.30;99.90
20479;DHT22;10398;52.490;13.434;2023-08-30T03:34:27;16.30;99.90
20479;DHT22;10398;52.490;13.434;2023-08-30T03:36:53;16.30;99.90
20479;DHT22;10398;52.490;13.434;2023-08-30T03:39:22;16.20;99.90
20479;DHT22;10398;52.490;13.434;2023-08-30T03:41:48;16.20;99.90
20479;DHT22;10398;52.490;13.434;2023-08-30T03:44:13;16.20;99.90
20479;DHT22;10398;52.490;13.434;2023-08-30T03:46:39;16.20;99.90
20479;DHT22;10398;52.490;13.434;2023-08-30T03:49:04;16.20;99.90
20479;DHT22;10398;52.490;13.434;2023-08-30T03:51:30;16.20;99.90
20479;DHT22;10398;52.490;13.434;2023-08-30T03:53:56;16.10;99.90
20479;DHT22;10398;52.490;13.434;2023-08-30T03:56:22;16.20;99.90
20479;DHT22;10398;52.490;13.434;2023-08-30T03:58:48;16.20;99.90
20479;DHT22;10398;52.490;13.434;2023-08-30T04:01:14;16.20;99.90
20479;DHT22;10398;52.490;13.434;2023-08-30T04:03:40;16.20;99.90
20479;DHT22;10398;52.490;13.434;2023-08-30T04:06:05;16.00;99.90
20479;DHT22;10398;52.490;13.434;2023-08-30T04:08:31;16.00;99.90
20479;DHT22;10398;52.490;13.434;2023-08-30T04:10:57;16.10;99.90
20479;DHT22;10398;52.490;13.434;2023-08-30T04:13:22;16.10;99.90
20479;DHT22;10398;52.490;13.434;2023-08-30T04:15:48;16.10;99.90
20479;DHT22;10398;52.490;13.434;2023-08-30T04:18:14;16.10;99.90
20479;DHT22;10398;52.490;13.434;2023-08-30T04:20:44;16.10;99.90
20479;DHT22;10398;52.490;13.434;2023-08-30T04:23:10;16.20;99.90
20479;DHT22;10398;52.490;13.434;2023-08-30T04:25:36;16.10;99.90
20479;DHT22;10398;52.490;13.434;2023-08-30T04:28:02;16.20;99.90
20479;DHT22;10398;52.490;13.434;2023-08-30T04:30:28;16.20;99.90
20479;DHT22;10398;52.490;13.434;2023-08-30T04:32:54;16.20;99.90
20479;DHT22;10398;52.490;13.434;2023-08-30T04:35:20;16.20;99.90
20479;DHT22;10398;52.490;13.434;2023-08-30T04:37:45;16.20;99.90
20479;DHT22;10398;52.490;13.434;2023-08-30T04:40:11;16.20;99.90
20479;DHT22;10398;52.490;13.434;2023-08-30T04:42:37;16.20;99.90
20479;DHT22;10398;52.490;13.434;2023-08-30T04:45:05;16.20;99.90
20479;DHT22;10398;52.490;13.434;2023-08-30T04:47:32;16.20;99.90
20479;DHT22;10398;52.490;13.434;2023-08-30T04:50:00;16.20;99.90
20479;DHT22;10398;52.490;13.434;2023-08-30T04:52:26;16.20;99.90
20479;DHT22;10398;52.490;13.434;2023-08-30T04:54:52;16.20;99.90
20479;DHT22;10398;52.490;13.434;2023-08-30T04:57:18;16.20;99.90
20479;DHT22;10398;52.490;13.434;2023-08-30T04:59:45;16.20;99.90
20479;DHT22;10398;52.490;13.434;2023-08-30T05:02:11;16.20;99.90
20479;DHT22;10398;52.490;13.434;2023-08-30T05:04:37;16.30;99.90
20479;DHT22;10398;52.490;13.434;2023-08-30T05:07:03;16.30;99.90
20479;DHT22;10398;52.490;13.434;2023-08-30T05:09:30;16.30;99.90
20479;DHT22;10398;52.490;13.434;2023-08-30T05:11:56;16.30;99.90
20479;DHT22;10398;52.490;13.434;2023-08-30T05:14:22;16.30;99.90
20479;DHT22;10398;52.490;13.434;2023-08-30T05:16:49;16.40;99.90
20479;DHT22;10398;52.490;13.434;2023-08-30T05:19:15;16.40;99.90
20479;DHT22;10398;52.490;13.434;2023-08-30T05:21:44;16.40;99.90
20479;DHT22;10398;52.490;13.434;2023-08-30T05:24:10;16.40;99.90
20479;DHT22;10398;52.490;13.434;2023-08-30T05:26:36;16.40;99.90
20479;DHT22;10398;52.490;13.434;2023-08-30T05:29:03;16.40;99.90
20479;DHT22;10398;52.490;13.434;2023-08-30T05:31:28;16.50;99.90
20479;DHT22;10398;52.490;13.434;2023-08-30T05:33:54;16.50;99.90
20479;DHT22;10398;52.490;13.434;2023-08-30T05:36:20;16.50;99.90
20479;DHT22;10398;52.490;13.434;2023-08-30T05:38:45;16.50;99.90
20479;DHT22;10398;52.490;13.434;2023-08-30T05:41:11;16.60;99.90
20479;DHT22;10398;52.490;13.434;2023-08-30T05:43:37;16.60;99.90
20479;DHT22;10398;52.490;13.434;2023-08-30T05:46:03;16.60;99.90
20479;DHT22;10398;52.490;13.434;2023-08-30T05:48:29;16.60;99.90
20479;DHT22;10398;52.490;13.434;2023-08-30T05:50:55;16.60;99.90
20479;DHT22;10398;52.490;13.434;2023-08-30T05:53:20;16.60;99.90
20479;DHT22;10398;52.490;13.434;2023-08-30T05:55:46;16.70;99.90
20479;DHT22;10398;52.490;13.434;2023-08-30T05:58:12;16.70;99.90
20479;DHT22;10398;52.490;13.434;2023-08-30T06:00:41;16.70;99.90
20479;DHT22;10398;52.490;13.434;2023-08-30T06:03:10;16.70;99.90
20479;DHT22;10398;52.490;13.434;2023-08-30T06:05:36;16.70;99.90
20479;DHT22;10398;52.490;13.434;2023-08-30T06:08:02;16.70;99.90
20479;DHT22;10398;52.490;13.434;2023-08-30T06:10:28;16.70;99.90
20479;DHT22;10398;52.490;13.434;2023-08-30T06:12:53;16.70;99.90
20479;DHT22;10398;52.490;13.434;2023-08-30T06:15:19;16.70;99.90
20479;DHT22;10398;52.490;13.434;2023-08-30T06:17:45;16.70;99.90
20479;DHT22;10398;52.490;13.434;2023-08-30T06:20:12;16.80;99.90
20479;DHT22;10398;52.490;13.434;2023-08-30T06:22:37;16.80;99.90
20479;DHT22;10398;52.490;13.434;2023-08-30T06:25:03;16.80;99.90
20479;DHT22;10398;52.490;13.434;2023-08-30T06:27:30;16.80;99.90
20479;DHT22;10398;52.490;13.434;2023-08-30T06:29:55;16.90;99.90
20479;DHT22;10398;52.490;13.434;2023-08-30T06:32:21;16.90;99.90
20479;DHT22;10398;52.490;13.434;2023-08-30T06:34:46;17.00;99.90
20479;DHT22;10398;52.490;13.434;2023-08-30T06:37:12;17.00;99.90
20479;DHT22;10398;52.490;13.434;2023-08-30T06:39:38;17.00;99.90
20479;DHT22;10398;52.490;13.434;2023-08-30T06:42:03;17.10;99.90
20479;DHT22;10398;52.490;13.434;2023-08-30T06:44:29;17.20;99.90
20479;DHT22;10398;52.490;13.434;2023-08-30T06:46:56;17.20;99.90
20479;DHT22;10398;52.490;13.434;2023-08-30T06:49:22;17.20;99.90
20479;DHT22;10398;52.490;13.434;2023-08-30T06:51:48;17.20;99.90
20479;DHT22;10398;52.490;13.434;2023-08-30T06:54:13;17.30;99.90
20479;DHT22;10398;52.490;13.434;2023-08-30T06:56:39;17.40;99.90
20479;DHT22;10398;52.490;13.434;2023-08-30T06:59:05;17.40;99.90
20479;DHT22;10398;52.490;13.434;2023-08-30T07:01:30;17.40;99.90
20479;DHT22;10398;52.490;13.434;2023-08-30T07:03:56;17.50;99.90
20479;DHT22;10398;52.490;13.434;2023-08-30T07:06:22;17.60;99.90
20479;DHT22;10398;52.490;13.434;2023-08-30T07:08:47;17.70;99.90
20479;DHT22;10398;52.490;13.434;2023-08-30T07:11:13;17.70;99.90
20479;DHT22;10398;52.490;13.434;2023-08-30T07:13:38;17.70;99.90
20479;DHT22;10398;52.490;13.434;2023-08-30T07:16:04;17.70;99.90
20479;DHT22;10398;52.490;13.434;2023-08-30T07:18:30;17.80;99.90
20479;DHT22;10398;52.490;13.434;2023-08-30T07:20:55;17.90;99.90
20479;DHT22;10398;52.490;13.434;2023-08-30T07:23:21;17.90;99.90
20479;DHT22;10398;52.490;13.434;2023-08-30T07:25:46;17.90;99.90
20479;DHT22;10398;52.490;13.434;2023-08-30T07:28:12;17.90;99.90
20479;DHT22;10398;52.490;13.434;2023-08-30T07:30:38;17.90;99.90
20479;DHT22;10398;52.490;13.434;2023-08-30T07:33:04;17.90;99.90
20479;DHT22;10398;52.490;13.434;2023-08-30T07:35:30;17.90;99.90
20479;DHT22;10398;52.490;13.434;2023-08-30T07:37:56;17.90;99.90
20479;DHT22;10398;52.490;13.434;2023-08-30T07:40:22;17.90;99.90
20479;DHT22;10398;52.490;13.434;2023-08-30T07:42:51;17.90;99.90
20479;DHT22;10398;52.490;13.434;2023-08-30T07:45:18;18.00;99.90
20479;DHT22;10398;52.490;13.434;2023-08-30T07:47:43;18.00;99.90
20479;DHT22;10398;52.490;13.434;2023-08-30T07:50:09;18.00;99.90
20479;DHT22;10398;52.490;13.434;2023-08-30T07:52:35;18.00;99.90
20479;DHT22;10398;52.490;13.434;2023-08-30T07:55:00;18.00;99.90
20479;DHT22;10398;52.490;13.434;2023-08-30T07:57:26;17.90;99.90
20479;DHT22;10398;52.490;13.434;2023-08-30T07:59:52;18.00;99.90
20479;DHT22;10398;52.490;13.434;2023-08-30T08:02:17;18.00;99.90
20479;DHT22;10398;52.490;13.434;2023-08-30T08:04:43;18.00;99.90
20479;DHT22;10398;52.490;13.434;2023-08-30T08:07:09;18.10;99.90
20479;DHT22;10398;52.490;13.434;2023-08-30T08:09:34;18.20;99.90
20479;DHT22;10398;52.490;13.434;2023-08-30T08:12:00;18.20;99.90
20479;DHT22;10398;52.490;13.434;2023-08-30T08:14:26;18.20;99.90
20479;DHT22;10398;52.490;13.434;2023-08-30T08:16:51;18.30;99.90
20479;DHT22;10398;52.490;13.434;2023-08-30T08:19:17;18.20;99.90
20479;DHT22;10398;52.490;13.434;2023-08-30T08:21:43;18.10;99.90
20479;DHT22;10398;52.490;13.434;2023-08-30T08:24:08;17.90;99.90
20479;DHT22;10398;52.490;13.434;2023-08-30T08:26:34;17.90;99.90
20479;DHT22;10398;52.490;13.434;2023-08-30T08:29:00;17.90;99.90
20479;DHT22;10398;52.490;13.434;2023-08-30T08:31:25;18.00;99.90
20479;DHT22;10398;52.490;13.434;2023-08-30T08:34:11;18.00;99.90
20479;DHT22;10398;52.490;13.434;2023-08-30T08:36:39;18.10;99.90
20479;DHT22;10398;52.490;13.434;2023-08-30T08:39:05;18.10;99.90
20479;DHT22;10398;52.490;13.434;2023-08-30T08:41:43;18.20;99.90
20479;DHT22;10398;52.490;13.434;2023-08-30T08:44:10;18.20;99.90
20479;DHT22;10398;52.490;13.434;2023-08-30T08:46:37;18.30;99.90
20479;DHT22;10398;52.490;13.434;2023-08-30T08:49:16;18.30;99.90
20479;DHT22;10398;52.490;13.434;2023-08-30T08:51:44;18.30;99.90
20479;DHT22;10398;52.490;13.434;2023-08-30T08:54:11;18.30;99.90
20479;DHT22;10398;52.490;13.434;2023-08-30T08:56:38;18.40;99.90
20479;DHT22;10398;52.490;13.434;2023-08-30T08:59:05;18.40;99.90
20479;DHT22;10398;52.490;13.434;2023-08-30T09:01:34;18.40;99.90
20479;DHT22;10398;52.490;13.434;2023-08-30T09:04:09;18.40;99.90
20479;DHT22;10398;52.490;13.434;2023-08-30T09:06:35;18.50;99.90
20479;DHT22;10398;52.490;13.434;2023-08-30T09:09:03;18.60;99.90
20479;DHT22;10398;52.490;13.434;2023-08-30T09:11:29;18.60;99.90
20479;DHT22;10398;52.490;13.434;2023-08-30T09:13:55;18.60;99.90
20479;DHT22;10398;52.490;13.434;2023-08-30T09:16:21;18.70;99.90
20479;DHT22;10398;52.490;13.434;2023-08-30T09:19:00;18.70;99.90
20479;DHT22;10398;52.490;13.434;2023-08-30T09:21:26;18.80;99.90
20479;DHT22;10398;52.490;13.434;2023-08-30T09:24:02;18.90;99.90
20479;DHT22;10398;52.490;13.434;2023-08-30T09:26:30;19.00;99.90
20479;DHT22;10398;52.490;13.434;2023-08-30T09:29:04;19.00;99.90
20479;DHT22;10398;52.490;13.434;2023-08-30T09:31:37;19.10;99.90
20479;DHT22;10398;52.490;13.434;2023-08-30T09:34:03;19.10;99.90
20479;DHT22;10398;52.490;13.434;2023-08-30T09:36:40;19.10;99.90
20479;DHT22;10398;52.490;13.434;2023-08-30T09:39:12;19.30;99.90
20479;DHT22;10398;52.490;13.434;2023-08-30T09:41:49;19.40;99.90
20479;DHT22;10398;52.490;13.434;2023-08-30T09:44:19;19.50;99.90
20479;DHT22;10398;52.490;13.434;2023-08-30T09:46:51;19.60;99.90
20479;DHT22;10398;52.490;13.434;2023-08-30T09:49:25;19.70;99.90
20479;DHT22;10398;52.490;13.434;2023-08-30T09:51:52;19.80;99.90
20479;DHT22;10398;52.490;13.434;2023-08-30T09:54:19;19.90;99.90
20479;DHT22;10398;52.490;13.434;2023-08-30T09:56:46;20.00;99.90
20479;DHT22;10398;52.490;13.434;2023-08-30T09:59:15;20.10;99.90
20479;DHT22;10398;52.490;13.434;2023-08-30T10:01:45;20.20;99.90
20479;DHT22;10398;52.490;13.434;2023-08-30T10:04:11;20.40;99.90
20479;DHT22;10398;52.490;13.434;2023-08-30T10:06:38;20.70;99.90
20479;DHT22;10398;52.490;13.434;2023-08-30T10:09:05;20.90;99.90
20479;DHT22;10398;52.490;13.434;2023-08-30T10:11:38;21.10;99.90
20479;DHT22;10398;52.490;13.434;2023-08-30T10:14:05;21.30;99.90
20479;DHT22;10398;52.490;13.434;2023-08-30T10:16:47;21.50;99.90
20479;DHT22;10398;52.490;13.434;2023-08-30T10:19:27;21.50;99.90
20479;DHT22;10398;52.490;13.434;2023-08-30T10:22:06;21.50;99.90
20479;DHT22;10398;52.490;13.434;2023-08-30T10:25:10;21.50;99.90
20479;DHT22;10398;52.490;13.434;2023-08-30T10:27:39;21.60;99.90
20479;DHT22;10398;52.490;13.434;2023-08-30T10:30:07;21.80;99.90
20479;DHT22;10398;52.490;13.434;2023-08-30T10:32:42;21.90;99.90
20479;DHT22;10398;52.490;13.434;2023-08-30T10:35:18;21.90;99.90
20479;DHT22;10398;52.490;13.434;2023-08-30T10:37:54;21.90;99.90
20479;DHT22;10398;52.490;13.434;2023-08-30T10:40:21;22.00;99.90
20479;DHT22;10398;52.490;13.434;2023-08-30T10:42:58;22.10;99.90
20479;DHT22;10398;52.490;13.434;2023-08-30T10:45:24;22.10;99.90
20479;DHT22;10398;52.490;13.434;2023-08-30T10:47:55;22.10;99.90
20479;DHT22;10398;52.490;13.434;2023-08-30T10:50:28;22.00;99.90
20479;DHT22;10398;52.490;13.434;2023-08-30T10:52:55;21.90;99.90
20479;DHT22;10398;52.490;13.434;2023-08-30T10:55:23;21.90;99.90
20479;DHT22;10398;52.490;13.434;2023-08-30T10:58:02;21.90;99.90
20479;DHT22;10398;52.490;13.434;2023-08-30T11:00:31;21.90;99.90
20479;DHT22;10398;52.490;13.434;2023-08-30T11:02:57;21.90;99.90
20479;DHT22;10398;52.490;13.434;2023-08-30T11:05:25;21.90;99.90
20479;DHT22;10398;52.490;13.434;2023-08-30T11:07:51;22.00;99.90
20479;DHT22;10398;52.490;13.434;2023-08-30T11:10:19;22.10;99.90
20479;DHT22;10398;52.490;13.434;2023-08-30T11:12:45;22.20;99.90
20479;DHT22;10398;52.490;13.434;2023-08-30T11:15:13;22.10;99.90
20479;DHT22;10398;52.490;13.434;2023-08-30T11:17:40;22.10;99.90
20479;DHT22;10398;52.490;13.434;2023-08-30T11:20:11;22.20;99.90
20479;DHT22;10398;52.490;13.434;2023-08-30T11:22:47;22.20;99.90
20479;DHT22;10398;52.490;13.434;2023-08-30T11:25:15;22.20;99.90
20479;DHT22;10398;52.490;13.434;2023-08-30T11:27:41;22.30;99.90
20479;DHT22;10398;52.490;13.434;2023-08-30T11:30:08;22.30;99.90
20479;DHT22;10398;52.490;13.434;2023-08-30T11:32:42;22.30;99.90
20479;DHT22;10398;52.490;13.434;2023-08-30T11:35:11;22.30;99.90
20479;DHT22;10398;52.490;13.434;2023-08-30T11:37:37;22.40;99.90
20479;DHT22;10398;52.490;13.434;2023-08-30T11:40:03;22.40;99.90
20479;DHT22;10398;52.490;13.434;2023-08-30T11:42:31;22.30;99.90
20479;DHT22;10398;52.490;13.434;2023-08-30T11:44:58;22.30;99.90
20479;DHT22;10398;52.490;13.434;2023-08-30T11:47:24;22.30;99.90
20479;DHT22;10398;52.490;13.434;2023-08-30T11:49:52;22.30;99.90
20479;DHT22;10398;52.490;13.434;2023-08-30T11:52:19;22.20;99.90
20479;DHT22;10398;52.490;13.434;2023-08-30T11:54:47;22.10;99.90
20479;DHT22;10398;52.490;13.434;2023-08-30T11:57:13;22.00;99.90
20479;DHT22;10398;52.490;13.434;2023-08-30T11:59:39;21.90;99.90
20479;DHT22;10398;52.490;13.434;2023-08-30T12:02:05;21.70;99.90
20479;DHT22;10398;52.490;13.434;2023-08-30T12:04:32;21.70;99.90
20479;DHT22;10398;52.490;13.434;2023-08-30T12:07:00;21.50;99.90
20479;DHT22;10398;52.490;13.434;2023-08-30T12:09:33;21.40;99.90
20479;DHT22;10398;52.490;13.434;2023-08-30T12:12:26;21.30;99.90
20479;DHT22;10398;52.490;13.434;2023-08-30T12:14:55;21.20;99.90
20479;DHT22;10398;52.490;13.434;2023-08-30T12:17:24;21.10;99.90
20479;DHT22;10398;52.490;13.434;2023-08-30T12:19:59;21.00;99.90
20479;DHT22;10398;52.490;13.434;2023-08-30T12:22:38;20.90;99.90
20479;DHT22;10398;52.490;13.434;2023-08-30T12:25:14;20.90;99.90
20479;DHT22;10398;52.490;13.434;2023-08-30T12:27:40;20.90;99.90
20479;DHT22;10398;52.490;13.434;2023-08-30T12:30:07;20.90;99.90
20479;DHT22;10398;52.490;13.434;2023-08-30T12:32:33;20.90;99.90
20479;DHT22;10398;52.490;13.434;2023-08-30T12:34:58;20.90;99.90
20479;DHT22;10398;52.490;13.434;2023-08-30T12:37:24;20.90;99.90
20479;DHT22;10398;52.490;13.434;2023-08-30T12:39:50;20.90;99.90
20479;DHT22;10398;52.490;13.434;2023-08-30T12:42:15;20.80;99.90
20479;DHT22;10398;52.490;13.434;2023-08-30T12:44:41;20.80;99.90
20479;DHT22;10398;52.490;13.434;2023-08-30T12:47:07;20.80;99.90
20479;DHT22;10398;52.490;13.434;2023-08-30T12:49:32;20.70;99.90
20479;DHT22;10398;52.490;13.434;2023-08-30T12:51:58;20.70;99.90
20479;DHT22;10398;52.490;13.434;2023-08-30T12:54:24;20.80;99.90
20479;DHT22;10398;52.490;13.434;2023-08-30T12:56:49;20.80;99.90
20479;DHT22;10398;52.490;13.434;2023-08-30T12:59:15;20.80;99.90
20479;DHT22;10398;52.490;13.434;2023-08-30T13:01:40;20.90;99.90
20479;DHT22;10398;52.490;13.434;2023-08-30T13:04:06;21.00;99.90
20479;DHT22;10398;52.490;13.434;2023-08-30T13:06:33;21.10;99.90
20479;DHT22;10398;52.490;13.434;2023-08-30T13:08:58;21.20;99.90
20479;DHT22;10398;52.490;13.434;2023-08-30T13:11:24;21.40;99.90
20479;DHT22;10398;52.490;13.434;2023-08-30T13:13:51;21.50;99.90
20479;DHT22;10398;52.490;13.434;2023-08-30T13:16:17;21.60;99.90
20479;DHT22;10398;52.490;13.434;2023-08-30T13:18:43;21.60;99.90
20479;DHT22;10398;52.490;13.434;2023-08-30T13:21:09;21.70;99.90
20479;DHT22;10398;52.490;13.434;2023-08-30T13:23:34;21.80;99.90
20479;DHT22;10398;52.490;13.434;2023-08-30T13:26:00;21.90;99.90
20479;DHT22;10398;52.490;13.434;2023-08-30T13:28:25;22.00;99.90
20479;DHT22;10398;52.490;13.434;2023-08-30T13:30:51;22.10;99.90
20479;DHT22;10398;52.490;13.434;2023-08-30T13:33:17;22.20;99.90
20479;DHT22;10398;52.490;13.434;2023-08-30T13:35:43;22.40;99.90
20479;DHT22;10398;52.490;13.434;2023-08-30T13:38:08;22.50;99.90
20479;DHT22;10398;52.490;13.434;2023-08-30T13:40:34;22.70;99.90
20479;DHT22;10398;52.490;13.434;2023-08-30T13:43:00;22.70;99.90
20479;DHT22;10398;52.490;13.434;2023-08-30T13:45:25;22.80;99.90
20479;DHT22;10398;52.490;13.434;2023-08-30T13:47:51;22.80;99.90
20479;DHT22;10398;52.490;13.434;2023-08-30T13:50:18;22.70;99.90
20479;DHT22;10398;52.490;13.434;2023-08-30T13:52:44;22.60;99.90
20479;DHT22;10398;52.490;13.434;2023-08-30T13:55:09;22.50;99.90
20479;DHT22;10398;52.490;13.434;2023-08-30T13:57:35;22.40;99.90
20479;DHT22;10398;52.490;13.434;2023-08-30T14:00:01;22.40;99.90
20479;DHT22;10398;52.490;13.434;2023-08-30T14:02:31;22.40;99.90
20479;DHT22;10398;52.490;13.434;2023-08-30T14:04:57;22.40;99.90
20479;DHT22;10398;52.490;13.434;2023-08-30T14:07:23;22.40;99.90
20479;DHT22;10398;52.490;13.434;2023-08-30T14:09:49;22.40;99.90
20479;DHT22;10398;52.490;13.434;2023-08-30T14:12:14;22.40;99.90
20479;DHT22;10398;52.490;13.434;2023-08-30T14:14:40;22.60;99.90
20479;DHT22;10398;52.490;13.434;2023-08-30T14:17:05;22.70;99.90
20479;DHT22;10398;52.490;13.434;2023-08-30T14:19:34;22.90;99.90
20479;DHT22;10398;52.490;13.434;2023-08-30T14:22:00;23.10;99.90
20479;DHT22;10398;52.490;13.434;2023-08-30T14:24:28;23.30;99.90
20479;DHT22;10398;52.490;13.434;2023-08-30T14:26:54;23.40;99.90
20479;DHT22;10398;52.490;13.434;2023-08-30T14:29:20;23.50;99.90
20479;DHT22;10398;52.490;13.434;2023-08-30T14:31:48;23.60;99.90
20479;DHT22;10398;52.490;13.434;2023-08-30T14:34:13;23.60;99.90
20479;DHT22;10398;52.490;13.434;2023-08-30T14:36:39;23.60;99.90
20479;DHT22;10398;52.490;13.434;2023-08-30T14:39:08;23.60;99.90
20479;DHT22;10398;52.490;13.434;2023-08-30T14:41:35;23.60;99.90
20479;DHT22;10398;52.490;13.434;2023-08-30T14:44:02;23.50;99.90
20479;DHT22;10398;52.490;13.434;2023-08-30T14:46:29;23.50;99.90
20479;DHT22;10398;52.490;13.434;2023-08-30T14:48:55;23.30;99.90
20479;DHT22;10398;52.490;13.434;2023-08-30T14:51:20;23.30;99.90
20479;DHT22;10398;52.490;13.434;2023-08-30T14:53:46;23.20;99.90
20479;DHT22;10398;52.490;13.434;2023-08-30T14:56:12;23.20;99.90
20479;DHT22;10398;52.490;13.434;2023-08-30T14:58:37;23.20;99.90
20479;DHT22;10398;52.490;13.434;2023-08-30T15:01:04;23.20;99.90
20479;DHT22;10398;52.490;13.434;2023-08-30T15:03:30;23.30;99.90
20479;DHT22;10398;52.490;13.434;2023-08-30T15:05:56;23.40;99.90
20479;DHT22;10398;52.490;13.434;2023-08-30T15:08:23;23.40;99.90
20479;DHT22;10398;52.490;13.434;2023-08-30T15:10:49;23.50;99.90
20479;DHT22;10398;52.490;13.434;2023-08-30T15:13:17;23.50;99.90
20479;DHT22;10398;52.490;13.434;2023-08-30T15:15:43;23.30;99.90
20479;DHT22;10398;52.490;13.434;2023-08-30T15:18:08;23.20;99.90